sensor_id;sensor_type;location;lat;lon;timestamp;P1;durP1;ratioP1;P2;durP2;ratioP2
74519;SDS011;63002;48.134;-1.948;2023-06-22T05:02:14;6.53;;;1.80;;
74519;SDS011;63002;48.134;-1.948;2023-06-22T05:04:40;10.00;;;2.20;;
74519;SDS011;63002;48.134;-1.948;2023-06-22T05:07:06;6.87;;;2.53;;
74519;SDS011;63002;48.134;-1.948;2023-06-22T05:09:32;7.50;;;2.25;;
74519;SDS011;63002;48.134;-1.948;2023-06-22T05:11:58;7.28;;;2.38;;
74519;SDS011;63002;48.134;-1.948;2023-06-22T05:14:27;7.38;;;2.10;;
74519;SDS011;63002;48.134;-1.948;2023-06-22T05:16:53;7.20;;;2.17;;
74519;SDS011;63002;48.134;-1.948;2023-06-22T05:19:19;7.33;;;2.10;;
74519;SDS011;63002;48.134;-1.948;2023-06-22T05:21:44;7.18;;;2.15;;
74519;SDS011;63002;48.134;-1.948;2023-06-22T05:24:10;6.90;;;2.67;;
74519;SDS011;63002;48.134;-1.948;2023-06-22T05:26:36;7.80;;;2.45;;
74519;SDS011;63002;48.134;-1.948;2023-06-22T05:29:02;9.03;;;3.33;;
74519;SDS011;63002;48.134;-1.948;2023-06-22T05:31:28;8.10;;;3.28;;
74519;SDS011;63002;48.134;-1.948;2023-06-22T05:33:55;9.95;;;3.28;;
74519;SDS011;63002;48.134;-1.948;2023-06-22T05:36:21;12.02;;;3.90;;
74519;SDS011;63002;48.134;-1.948;2023-06-22T05:38:50;10.15;;;3.53;;
74519;SDS011;63002;48.134;-1.948;2023-06-22T05:41:17;10.60;;;3.00;;
74519;SDS011;63002;48.134;-1.948;2023-06-22T05:43:43;9.82;;;3.30;;
74519;SDS011;63002;48.134;-1.948;2023-06-22T05:46:09;14.88;;;4.38;;
74519;SDS011;63002;48.134;-1.948;2023-06-22T05:48:35;12.73;;;4.10;;
74519;SDS011;63002;48.134;-1.948;2023-06-22T05:51:00;12.15;;;3.83;;
74519;SDS011;63002;48.134;-1.948;2023-06-22T05:53:26;11.57;;;3.87;;
74519;SDS011;63002;48.134;-1.948;2023-06-22T05:55:52;11.65;;;2.80;;
74519;SDS011;63002;48.134;-1.948;2023-06-22T05:58:19;9.48;;;3.10;;
74519;SDS011;63002;48.134;-1.948;2023-06-22T06:00:45;8.97;;;3.50;;
74519;SDS011;63002;48.134;-1.948;2023-06-22T06:03:11;7.53;;;3.10;;
74519;SDS011;63002;48.134;-1.948;2023-06-22T06:05:37;9.35;;;2.83;;
74519;SDS011;63002;48.134;-1.948;2023-06-22T06:08:04;13.63;;;3.30;;
74519;SDS011;63002;48.134;-1.948;2023-06-22T06:10:31;8.30;;;2.90;;
74519;SDS011;63002;48.134;-1.948;2023-06-22T06:12:58;23.85;;;4.00;;
74519;SDS011;63002;48.134;-1.948;2023-06-22T06:15:26;21.25;;;3.30;;
74519;SDS011;63002;48.134;-1.948;2023-06-22T06:17:52;22.95;;;3.17;;
74519;SDS011;63002;48.134;-1.948;2023-06-22T06:20:19;20.17;;;3.80;;
74519;SDS011;63002;48.134;-1.948;2023-06-22T06:22:47;21.07;;;3.23;;
74519;SDS011;63002;48.134;-1.948;2023-06-22T06:25:14;10.30;;;2.78;;
74519;SDS011;63002;48.134;-1.948;2023-06-22T06:27:43;8.63;;;2.80;;
74519;SDS011;63002;48.134;-1.948;2023-06-22T06:30:13;8.75;;;2.03;;
74519;SDS011;63002;48.134;-1.948;2023-06-22T06:32:40;7.80;;;2.30;;
74519;SDS011;63002;48.134;-1.948;2023-06-22T06:35:07;7.40;;;2.57;;
74519;SDS011;63002;48.134;-1.948;2023-06-22T06:37:38;7.90;;;2.38;;
74519;SDS011;63002;48.134;-1.948;2023-06-22T06:40:06;6.97;;;2.47;;
74519;SDS011;63002;48.134;-1.948;2023-06-22T06:42:36;8.93;;;2.20;;
74519;SDS011;63002;48.134;-1.948;2023-06-22T06:45:16;8.82;;;2.25;;
74519;SDS011;63002;48.134;-1.948;2023-06-22T06:47:42;8.77;;;2.30;;
74519;SDS011;63002;48.134;-1.948;2023-06-22T06:50:08;8.25;;;2.20;;
74519;SDS011;63002;48.134;-1.948;2023-06-22T06:52:34;8.85;;;2.40;;
74519;SDS011;63002;48.134;-1.948;2023-06-22T06:55:00;7.45;;;2.22;;
74519;SDS011;63002;48.134;-1.948;2023-06-22T06:57:26;6.57;;;2.20;;
74519;SDS011;63002;48.134;-1.948;2023-06-22T06:59:54;6.00;;;1.98;;
74519;SDS011;63002;48.134;-1.948;2023-06-22T07:02:21;6.35;;;2.30;;
74519;SDS011;63002;48.134;-1.948;2023-06-22T07:04:47;6.85;;;1.90;;
74519;SDS011;63002;48.134;-1.948;2023-06-22T07:07:13;9.55;;;2.60;;
74519;SDS011;63002;48.134;-1.948;2023-06-22T07:09:39;6.23;;;2.10;;
74519;SDS011;63002;48.134;-1.948;2023-06-22T07:12:05;6.75;;;2.30;;
74519;SDS011;63002;48.134;-1.948;2023-06-22T07:14:31;7.50;;;2.25;;
74519;SDS011;63002;48.134;-1.948;2023-06-22T07:16:57;6.90;;;2.27;;
74519;SDS011;63002;48.134;-1.948;2023-06-22T07:19:26;7.13;;;2.20;;
74519;SDS011;63002;48.134;-1.948;2023-06-22T07:21:53;9.27;;;2.30;;
74519;SDS011;63002;48.134;-1.948;2023-06-22T07:24:20;6.63;;;2.00;;
74519;SDS011;63002;48.134;-1.948;2023-06-22T07:26:49;7.18;;;2.10;;
74519;SDS011;63002;48.134;-1.948;2023-06-22T07:29:18;8.48;;;2.38;;
74519;SDS011;63002;48.134;-1.948;2023-06-22T07:31:46;7.25;;;2.10;;
74519;SDS011;63002;48.134;-1.948;2023-06-22T07:34:12;6.68;;;1.90;;
74519;SDS011;63002;48.134;-1.948;2023-06-22T07:36:38;5.82;;;2.00;;
74519;SDS011;63002;48.134;-1.948;2023-06-22T07:39:04;5.73;;;1.70;;
74519;SDS011;63002;48.134;-1.948;2023-06-22T07:41:30;6.18;;;1.90;;
74519;SDS011;63002;48.134;-1.948;2023-06-22T07:43:56;5.82;;;1.88;;
74519;SDS011;63002;48.134;-1.948;2023-06-22T07:46:22;6.13;;;1.60;;
74519;SDS011;63002;48.134;-1.948;2023-06-22T07:48:48;5.93;;;1.90;;
74519;SDS011;63002;48.134;-1.948;2023-06-22T07:51:14;6.13;;;1.60;;
74519;SDS011;63002;48.134;-1.948;2023-06-22T07:53:43;4.80;;;1.77;;
74519;SDS011;63002;48.134;-1.948;2023-06-22T07:56:12;4.85;;;1.45;;
74519;SDS011;63002;48.134;-1.948;2023-06-22T07:58:43;5.18;;;1.60;;
74519;SDS011;63002;48.134;-1.948;2023-06-22T08:01:10;5.63;;;1.80;;
74519;SDS011;63002;48.134;-1.948;2023-06-22T08:03:36;6.00;;;1.73;;
74519;SDS011;63002;48.134;-1.948;2023-06-22T08:06:02;4.82;;;1.40;;
74519;SDS011;63002;48.134;-1.948;2023-06-22T08:08:28;5.00;;;1.45;;
74519;SDS011;63002;48.134;-1.948;2023-06-22T08:10:54;5.33;;;1.80;;
74519;SDS011;63002;48.134;-1.948;2023-06-22T08:13:19;5.45;;;1.65;;
74519;SDS011;63002;48.134;-1.948;2023-06-22T08:15:45;4.67;;;1.60;;
74519;SDS011;63002;48.134;-1.948;2023-06-22T08:18:11;4.18;;;1.38;;
74519;SDS011;63002;48.134;-1.948;2023-06-22T08:20:37;6.15;;;1.50;;
74519;SDS011;63002;48.134;-1.948;2023-06-22T08:23:02;3.43;;;1.37;;
74519;SDS011;63002;48.134;-1.948;2023-06-22T08:25:32;4.38;;;1.40;;
74519;SDS011;63002;48.134;-1.948;2023-06-22T08:27:59;5.35;;;1.60;;
74519;SDS011;63002;48.134;-1.948;2023-06-22T08:30:25;4.28;;;1.50;;
74519;SDS011;63002;48.134;-1.948;2023-06-22T08:32:51;4.22;;;1.40;;
74519;SDS011;63002;48.134;-1.948;2023-06-22T08:35:17;4.53;;;1.40;;
74519;SDS011;63002;48.134;-1.948;2023-06-22T08:37:43;5.23;;;1.63;;
74519;SDS011;63002;48.134;-1.948;2023-06-22T08:40:10;5.30;;;1.50;;
74519;SDS011;63002;48.134;-1.948;2023-06-22T08:42:37;4.05;;;1.45;;
74519;SDS011;63002;48.134;-1.948;2023-06-22T08:45:03;4.15;;;1.20;;
74519;SDS011;63002;48.134;-1.948;2023-06-22T08:47:29;4.43;;;1.40;;
74519;SDS011;63002;48.134;-1.948;2023-06-22T08:49:55;4.43;;;1.33;;
74519;SDS011;63002;48.134;-1.948;2023-06-22T08:52:21;3.70;;;1.38;;
74519;SDS011;63002;48.134;-1.948;2023-06-22T08:54:48;4.30;;;1.55;;
74519;SDS011;63002;48.134;-1.948;2023-06-22T08:57:15;3.97;;;1.20;;
74519;SDS011;63002;48.134;-1.948;2023-06-22T08:59:41;4.82;;;1.58;;
74519;SDS011;63002;48.134;-1.948;2023-06-22T09:02:07;3.75;;;1.35;;
74519;SDS011;63002;48.134;-1.948;2023-06-22T09:04:33;3.97;;;1.23;;
74519;SDS011;63002;48.134;-1.948;2023-06-22T09:07:01;3.22;;;1.20;;
74519;SDS011;63002;48.134;-1.948;2023-06-22T09:09:27;5.05;;;1.30;;
74519;SDS011;63002;48.134;-1.948;2023-06-22T09:11:53;4.00;;;1.23;;
74519;SDS011;63002;48.134;-1.948;2023-06-22T09:14:19;4.37;;;1.50;;
74519;SDS011;63002;48.134;-1.948;2023-06-22T09:16:45;4.18;;;1.35;;
74519;SDS011;63002;48.134;-1.948;2023-06-22T09:19:11;3.73;;;1.47;;
74519;SDS011;63002;48.134;-1.948;2023-06-22T09:21:37;3.05;;;1.05;;
74519;SDS011;63002;48.134;-1.948;2023-06-22T09:24:03;4.32;;;1.15;;
74519;SDS011;63002;48.134;-1.948;2023-06-22T09:26:29;4.45;;;1.42;;
74519;SDS011;63002;48.134;-1.948;2023-06-22T09:28:55;4.43;;;1.30;;
74519;SDS011;63002;48.134;-1.948;2023-06-22T09:31:20;4.22;;;1.25;;
74519;SDS011;63002;48.134;-1.948;2023-06-22T09:33:52;3.23;;;1.13;;
74519;SDS011;63002;48.134;-1.948;2023-06-22T09:36:19;3.00;;;0.95;;
74519;SDS011;63002;48.134;-1.948;2023-06-22T09:38:48;5.28;;;1.20;;
74519;SDS011;63002;48.134;-1.948;2023-06-22T09:41:20;3.72;;;1.00;;
74519;SDS011;63002;48.134;-1.948;2023-06-22T09:43:46;3.65;;;1.17;;
74519;SDS011;63002;48.134;-1.948;2023-06-22T09:46:13;2.92;;;1.10;;
74519;SDS011;63002;48.134;-1.948;2023-06-22T09:48:40;3.22;;;1.20;;
74519;SDS011;63002;48.134;-1.948;2023-06-22T09:51:06;3.28;;;1.10;;
74519;SDS011;63002;48.134;-1.948;2023-06-22T09:53:31;4.10;;;1.20;;
74519;SDS011;63002;48.134;-1.948;2023-06-22T09:55:57;3.60;;;1.20;;
74519;SDS011;63002;48.134;-1.948;2023-06-22T09:58:23;2.67;;;0.97;;
74519;SDS011;63002;48.134;-1.948;2023-06-22T10:00:48;2.92;;;1.10;;
74519;SDS011;63002;48.134;-1.948;2023-06-22T10:03:14;3.10;;;1.07;;
74519;SDS011;63002;48.134;-1.948;2023-06-22T10:05:40;3.42;;;1.17;;
74519;SDS011;63002;48.134;-1.948;2023-06-22T10:08:06;3.03;;;1.07;;
74519;SDS011;63002;48.134;-1.948;2023-06-22T10:10:33;3.67;;;1.00;;
74519;SDS011;63002;48.134;-1.948;2023-06-22T10:13:02;2.80;;;1.00;;
74519;SDS011;63002;48.134;-1.948;2023-06-22T10:15:34;2.93;;;0.83;;
74519;SDS011;63002;48.134;-1.948;2023-06-22T10:18:00;2.95;;;1.00;;
74519;SDS011;63002;48.134;-1.948;2023-06-22T10:20:25;2.97;;;1.00;;
74519;SDS011;63002;48.134;-1.948;2023-06-22T10:22:51;3.05;;;1.08;;
74519;SDS011;63002;48.134;-1.948;2023-06-22T10:25:17;3.03;;;0.90;;
74519;SDS011;63002;48.134;-1.948;2023-06-22T10:27:43;2.67;;;0.85;;
74519;SDS011;63002;48.134;-1.948;2023-06-22T10:30:09;2.47;;;0.88;;
74519;SDS011;63002;48.134;-1.948;2023-06-22T10:32:40;2.63;;;0.80;;
74519;SDS011;63002;48.134;-1.948;2023-06-22T10:35:08;3.30;;;1.00;;
74519;SDS011;63002;48.134;-1.948;2023-06-22T10:37:35;2.10;;;0.82;;
74519;SDS011;63002;48.134;-1.948;2023-06-22T10:40:01;2.85;;;0.90;;
74519;SDS011;63002;48.134;-1.948;2023-06-22T10:42:29;3.10;;;1.00;;
74519;SDS011;63002;48.134;-1.948;2023-06-22T10:44:54;2.15;;;0.80;;
74519;SDS011;63002;48.134;-1.948;2023-06-22T10:47:20;3.70;;;1.13;;
74519;SDS011;63002;48.134;-1.948;2023-06-22T10:49:46;3.83;;;0.90;;
74519;SDS011;63002;48.134;-1.948;2023-06-22T10:52:12;2.45;;;0.80;;
74519;SDS011;63002;48.134;-1.948;2023-06-22T10:54:37;2.47;;;0.90;;
74519;SDS011;63002;48.134;-1.948;2023-06-22T10:57:03;2.92;;;1.13;;
74519;SDS011;63002;48.134;-1.948;2023-06-22T10:59:29;2.43;;;0.90;;
74519;SDS011;63002;48.134;-1.948;2023-06-22T11:01:55;2.47;;;0.90;;
74519;SDS011;63002;48.134;-1.948;2023-06-22T11:04:22;3.40;;;0.90;;
74519;SDS011;63002;48.134;-1.948;2023-06-22T11:06:48;2.80;;;1.00;;
74519;SDS011;63002;48.134;-1.948;2023-06-22T11:09:15;3.17;;;1.05;;
74519;SDS011;63002;48.134;-1.948;2023-06-22T11:11:49;3.55;;;0.90;;
74519;SDS011;63002;48.134;-1.948;2023-06-22T11:14:15;2.75;;;1.00;;
74519;SDS011;63002;48.134;-1.948;2023-06-22T11:16:41;2.88;;;1.10;;
74519;SDS011;63002;48.134;-1.948;2023-06-22T11:19:07;2.33;;;0.83;;
74519;SDS011;63002;48.134;-1.948;2023-06-22T11:21:33;3.53;;;1.00;;
74519;SDS011;63002;48.134;-1.948;2023-06-22T11:23:59;2.60;;;0.93;;
74519;SDS011;63002;48.134;-1.948;2023-06-22T11:26:25;4.43;;;1.30;;
74519;SDS011;63002;48.134;-1.948;2023-06-22T11:28:54;3.63;;;1.00;;
74519;SDS011;63002;48.134;-1.948;2023-06-22T11:31:20;3.58;;;0.95;;
74519;SDS011;63002;48.134;-1.948;2023-06-22T11:33:46;4.03;;;0.88;;
74519;SDS011;63002;48.134;-1.948;2023-06-22T11:36:13;2.95;;;1.02;;
74519;SDS011;63002;48.134;-1.948;2023-06-22T11:38:40;2.47;;;0.82;;
74519;SDS011;63002;48.134;-1.948;2023-06-22T11:41:07;2.78;;;0.93;;
74519;SDS011;63002;48.134;-1.948;2023-06-22T11:43:33;4.78;;;0.95;;
74519;SDS011;63002;48.134;-1.948;2023-06-22T11:46:01;4.65;;;0.98;;
74519;SDS011;63002;48.134;-1.948;2023-06-22T11:48:28;2.70;;;0.88;;
74519;SDS011;63002;48.134;-1.948;2023-06-22T11:50:54;4.72;;;1.00;;
74519;SDS011;63002;48.134;-1.948;2023-06-22T11:53:24;3.40;;;0.90;;
74519;SDS011;63002;48.134;-1.948;2023-06-22T11:55:51;5.03;;;1.08;;
74519;SDS011;63002;48.134;-1.948;2023-06-22T11:58:19;6.07;;;1.17;;
74519;SDS011;63002;48.134;-1.948;2023-06-22T12:00:45;2.92;;;0.90;;
74519;SDS011;63002;48.134;-1.948;2023-06-22T12:03:11;5.82;;;1.48;;
74519;SDS011;63002;48.134;-1.948;2023-06-22T12:05:37;3.83;;;0.95;;
74519;SDS011;63002;48.134;-1.948;2023-06-22T12:08:04;4.07;;;1.10;;
74519;SDS011;63002;48.134;-1.948;2023-06-22T12:10:31;5.10;;;1.10;;
74519;SDS011;63002;48.134;-1.948;2023-06-22T12:12:59;5.55;;;1.00;;
74519;SDS011;63002;48.134;-1.948;2023-06-22T12:15:30;3.72;;;0.90;;
74519;SDS011;63002;48.134;-1.948;2023-06-22T12:17:57;3.13;;;0.93;;
74519;SDS011;63002;48.134;-1.948;2023-06-22T12:20:23;4.30;;;0.90;;
74519;SDS011;63002;48.134;-1.948;2023-06-22T12:22:50;3.50;;;1.00;;
74519;SDS011;63002;48.134;-1.948;2023-06-22T12:25:19;5.05;;;1.02;;
74519;SDS011;63002;48.134;-1.948;2023-06-22T12:27:47;5.85;;;1.10;;
74519;SDS011;63002;48.134;-1.948;2023-06-22T12:30:16;3.80;;;0.85;;
74519;SDS011;63002;48.134;-1.948;2023-06-22T12:32:47;5.40;;;0.98;;
74519;SDS011;63002;48.134;-1.948;2023-06-22T12:35:15;2.83;;;0.90;;
74519;SDS011;63002;48.134;-1.948;2023-06-22T12:37:41;2.92;;;0.82;;
74519;SDS011;63002;48.134;-1.948;2023-06-22T12:40:09;2.80;;;0.75;;
74519;SDS011;63002;48.134;-1.948;2023-06-22T12:42:37;3.55;;;0.90;;
74519;SDS011;63002;48.134;-1.948;2023-06-22T12:45:05;4.55;;;1.00;;
74519;SDS011;63002;48.134;-1.948;2023-06-22T12:47:32;3.10;;;0.80;;
74519;SDS011;63002;48.134;-1.948;2023-06-22T12:49:57;3.10;;;0.98;;
74519;SDS011;63002;48.134;-1.948;2023-06-22T12:52:23;4.97;;;1.20;;
74519;SDS011;63002;48.134;-1.948;2023-06-22T12:54:49;4.40;;;1.20;;
74519;SDS011;63002;48.134;-1.948;2023-06-22T12:57:15;3.85;;;0.80;;
74519;SDS011;63002;48.134;-1.948;2023-06-22T12:59:42;3.10;;;0.93;;
74519;SDS011;63002;48.134;-1.948;2023-06-22T13:02:08;4.05;;;1.23;;
74519;SDS011;63002;48.134;-1.948;2023-06-22T13:04:34;4.10;;;1.00;;
74519;SDS011;63002;48.134;-1.948;2023-06-22T13:07:00;2.83;;;0.80;;
74519;SDS011;63002;48.134;-1.948;2023-06-22T13:09:25;2.65;;;0.93;;
74519;SDS011;63002;48.134;-1.948;2023-06-22T13:11:51;2.13;;;0.60;;
74519;SDS011;63002;48.134;-1.948;2023-06-22T13:14:17;3.67;;;0.90;;
74519;SDS011;63002;48.134;-1.948;2023-06-22T13:16:43;2.53;;;0.73;;
74519;SDS011;63002;48.134;-1.948;2023-06-22T13:19:09;2.63;;;1.00;;
74519;SDS011;63002;48.134;-1.948;2023-06-22T13:21:35;3.75;;;0.80;;
74519;SDS011;63002;48.134;-1.948;2023-06-22T13:24:01;2.53;;;0.60;;
74519;SDS011;63002;48.134;-1.948;2023-06-22T13:26:27;3.00;;;0.77;;
74519;SDS011;63002;48.134;-1.948;2023-06-22T13:28:55;2.38;;;0.70;;
74519;SDS011;63002;48.134;-1.948;2023-06-22T13:31:22;3.13;;;0.60;;
74519;SDS011;63002;48.134;-1.948;2023-06-22T13:33:48;2.17;;;0.60;;
74519;SDS011;63002;48.134;-1.948;2023-06-22T13:36:17;2.55;;;0.70;;
74519;SDS011;63002;48.134;-1.948;2023-06-22T13:38:44;4.72;;;0.70;;
74519;SDS011;63002;48.134;-1.948;2023-06-22T13:41:12;1.63;;;0.60;;
74519;SDS011;63002;48.134;-1.948;2023-06-22T13:43:39;3.22;;;0.85;;
74519;SDS011;63002;48.134;-1.948;2023-06-22T13:46:07;3.17;;;0.60;;
74519;SDS011;63002;48.134;-1.948;2023-06-22T13:48:37;2.45;;;0.63;;
74519;SDS011;63002;48.134;-1.948;2023-06-22T13:51:05;2.38;;;0.57;;
74519;SDS011;63002;48.134;-1.948;2023-06-22T13:53:37;2.55;;;0.60;;
74519;SDS011;63002;48.134;-1.948;2023-06-22T13:56:04;2.50;;;0.77;;
74519;SDS011;63002;48.134;-1.948;2023-06-22T13:58:36;1.83;;;0.60;;
74519;SDS011;63002;48.134;-1.948;2023-06-22T14:01:02;3.53;;;0.70;;
74519;SDS011;63002;48.134;-1.948;2023-06-22T14:03:28;2.30;;;0.80;;
74519;SDS011;63002;48.134;-1.948;2023-06-22T14:05:54;3.67;;;0.60;;
74519;SDS011;63002;48.134;-1.948;2023-06-22T14:08:21;4.65;;;1.10;;
74519;SDS011;63002;48.134;-1.948;2023-06-22T14:10:49;4.23;;;0.80;;
74519;SDS011;63002;48.134;-1.948;2023-06-22T14:13:35;3.47;;;0.80;;
74519;SDS011;63002;48.134;-1.948;2023-06-22T14:16:04;5.13;;;0.80;;
74519;SDS011;63002;48.134;-1.948;2023-06-22T14:18:37;6.00;;;1.00;;
74519;SDS011;63002;48.134;-1.948;2023-06-22T14:21:08;5.32;;;1.05;;
74519;SDS011;63002;48.134;-1.948;2023-06-22T14:23:39;9.17;;;0.93;;
74519;SDS011;63002;48.134;-1.948;2023-06-22T14:26:12;5.63;;;0.70;;
74519;SDS011;63002;48.134;-1.948;2023-06-22T14:28:40;9.35;;;1.25;;
74519;SDS011;63002;48.134;-1.948;2023-06-22T14:31:14;5.57;;;0.63;;
74519;SDS011;63002;48.134;-1.948;2023-06-22T14:33:55;6.40;;;0.80;;
74519;SDS011;63002;48.134;-1.948;2023-06-22T14:36:23;3.83;;;0.90;;
74519;SDS011;63002;48.134;-1.948;2023-06-22T14:39:00;5.47;;;0.98;;
74519;SDS011;63002;48.134;-1.948;2023-06-22T14:41:29;7.53;;;0.75;;
74519;SDS011;63002;48.134;-1.948;2023-06-22T14:44:00;6.25;;;0.98;;
74519;SDS011;63002;48.134;-1.948;2023-06-22T14:46:40;6.05;;;1.10;;
74519;SDS011;63002;48.134;-1.948;2023-06-22T14:49:15;6.37;;;0.80;;
74519;SDS011;63002;48.134;-1.948;2023-06-22T14:51:42;3.65;;;0.90;;
74519;SDS011;63002;48.134;-1.948;2023-06-22T14:54:10;6.97;;;1.02;;
74519;SDS011;63002;48.134;-1.948;2023-06-22T14:56:38;7.63;;;1.20;;
74519;SDS011;63002;48.134;-1.948;2023-06-22T14:59:10;4.28;;;0.70;;
74519;SDS011;63002;48.134;-1.948;2023-06-22T15:01:40;5.40;;;0.90;;
74519;SDS011;63002;48.134;-1.948;2023-06-22T15:04:08;5.30;;;0.82;;
74519;SDS011;63002;48.134;-1.948;2023-06-22T15:06:38;4.70;;;0.70;;
74519;SDS011;63002;48.134;-1.948;2023-06-22T15:09:08;5.22;;;0.90;;
74519;SDS011;63002;48.134;-1.948;2023-06-22T15:11:37;6.93;;;1.05;;
74519;SDS011;63002;48.134;-1.948;2023-06-22T15:14:05;3.70;;;1.07;;
74519;SDS011;63002;48.134;-1.948;2023-06-22T15:16:34;3.40;;;0.93;;
74519;SDS011;63002;48.134;-1.948;2023-06-22T15:19:02;7.15;;;0.77;;
74519;SDS011;63002;48.134;-1.948;2023-06-22T15:21:30;4.38;;;0.80;;
74519;SDS011;63002;48.134;-1.948;2023-06-22T15:23:59;2.70;;;0.70;;
74519;SDS011;63002;48.134;-1.948;2023-06-22T15:26:28;5.43;;;0.90;;
74519;SDS011;63002;48.134;-1.948;2023-06-22T15:28:56;4.90;;;1.00;;
74519;SDS011;63002;48.134;-1.948;2023-06-22T15:31:26;4.45;;;0.82;;
74519;SDS011;63002;48.134;-1.948;2023-06-22T15:33:54;4.80;;;0.70;;
74519;SDS011;63002;48.134;-1.948;2023-06-22T15:36:21;5.35;;;1.13;;
74519;SDS011;63002;48.134;-1.948;2023-06-22T15:38:51;5.53;;;1.00;;
74519;SDS011;63002;48.134;-1.948;2023-06-22T15:41:21;10.10;;;1.42;;
74519;SDS011;63002;48.134;-1.948;2023-06-22T15:43:58;3.78;;;0.70;;
74519;SDS011;63002;48.134;-1.948;2023-06-22T15:46:25;7.82;;;0.98;;
74519;SDS011;63002;48.134;-1.948;2023-06-22T15:48:52;6.57;;;0.90;;
74519;SDS011;63002;48.134;-1.948;2023-06-22T15:51:23;3.43;;;0.60;;
74519;SDS011;63002;48.134;-1.948;2023-06-22T15:53:50;4.15;;;0.60;;
74519;SDS011;63002;48.134;-1.948;2023-06-22T15:56:17;4.35;;;0.98;;
74519;SDS011;63002;48.134;-1.948;2023-06-22T15:58:46;4.55;;;0.65;;
74519;SDS011;63002;48.134;-1.948;2023-06-22T16:01:26;4.75;;;1.00;;
74519;SDS011;63002;48.134;-1.948;2023-06-22T16:04:16;5.77;;;0.80;;
74519;SDS011;63002;48.134;-1.948;2023-06-22T16:06:44;4.45;;;0.80;;
74519;SDS011;63002;48.134;-1.948;2023-06-22T16:09:15;4.55;;;0.93;;
74519;SDS011;63002;48.134;-1.948;2023-06-22T16:11:43;6.03;;;1.20;;
74519;SDS011;63002;48.134;-1.948;2023-06-22T16:14:11;3.75;;;0.80;;
74519;SDS011;63002;48.134;-1.948;2023-06-22T16:16:38;2.67;;;0.67;;
74519;SDS011;63002;48.134;-1.948;2023-06-22T16:19:08;4.68;;;0.90;;
74519;SDS011;63002;48.134;-1.948;2023-06-22T16:21:41;3.65;;;0.90;;
74519;SDS011;63002;48.134;-1.948;2023-06-22T16:24:12;4.40;;;0.70;;
74519;SDS011;63002;48.134;-1.948;2023-06-22T16:26:41;2.95;;;0.80;;
74519;SDS011;63002;48.134;-1.948;2023-06-22T16:29:09;2.97;;;0.77;;
74519;SDS011;63002;48.134;-1.948;2023-06-22T16:31:37;2.13;;;0.50;;
74519;SDS011;63002;48.134;-1.948;2023-06-22T16:34:04;3.13;;;0.60;;
74519;SDS011;63002;48.134;-1.948;2023-06-22T16:36:31;4.05;;;0.60;;
74519;SDS011;63002;48.134;-1.948;2023-06-22T16:38:58;4.00;;;0.77;;
74519;SDS011;63002;48.134;-1.948;2023-06-22T16:41:26;4.30;;;0.80;;
74519;SDS011;63002;48.134;-1.948;2023-06-22T16:43:55;7.30;;;0.80;;
74519;SDS011;63002;48.134;-1.948;2023-06-22T16:46:28;11.57;;;1.10;;
74519;SDS011;63002;48.134;-1.948;2023-06-22T16:49:00;8.02;;;0.90;;
74519;SDS011;63002;48.134;-1.948;2023-06-22T16:51:28;5.72;;;1.00;;
74519;SDS011;63002;48.134;-1.948;2023-06-22T16:53:57;4.90;;;1.10;;
74519;SDS011;63002;48.134;-1.948;2023-06-22T16:56:25;6.90;;;1.23;;
74519;SDS011;63002;48.134;-1.948;2023-06-22T16:58:57;3.95;;;1.10;;
74519;SDS011;63002;48.134;-1.948;2023-06-22T17:01:25;5.13;;;1.40;;
74519;SDS011;63002;48.134;-1.948;2023-06-22T17:03:57;6.75;;;1.67;;
74519;SDS011;63002;48.134;-1.948;2023-06-22T17:06:30;8.53;;;1.70;;
74519;SDS011;63002;48.134;-1.948;2023-06-22T17:08:59;9.20;;;1.70;;
74519;SDS011;63002;48.134;-1.948;2023-06-22T17:11:28;6.20;;;1.38;;
74519;SDS011;63002;48.134;-1.948;2023-06-22T17:13:59;8.65;;;1.88;;
74519;SDS011;63002;48.134;-1.948;2023-06-22T17:16:29;6.82;;;2.00;;
74519;SDS011;63002;48.134;-1.948;2023-06-22T17:18:59;9.97;;;2.00;;
74519;SDS011;63002;48.134;-1.948;2023-06-22T17:21:31;7.45;;;1.80;;
74519;SDS011;63002;48.134;-1.948;2023-06-22T17:24:00;6.28;;;1.80;;
74519;SDS011;63002;48.134;-1.948;2023-06-22T17:26:30;6.07;;;1.80;;
74519;SDS011;63002;48.134;-1.948;2023-06-22T17:28:57;7.55;;;1.90;;
74519;SDS011;63002;48.134;-1.948;2023-06-22T17:31:37;5.53;;;2.30;;
74519;SDS011;63002;48.134;-1.948;2023-06-22T17:34:27;8.48;;;1.92;;
74519;SDS011;63002;48.134;-1.948;2023-06-22T17:36:58;7.35;;;2.30;;
74519;SDS011;63002;48.134;-1.948;2023-06-22T17:39:27;7.32;;;1.90;;
74519;SDS011;63002;48.134;-1.948;2023-06-22T17:41:58;7.63;;;2.00;;
74519;SDS011;63002;48.134;-1.948;2023-06-22T17:44:27;5.27;;;1.80;;
74519;SDS011;63002;48.134;-1.948;2023-06-22T17:47:14;7.47;;;2.40;;
74519;SDS011;63002;48.134;-1.948;2023-06-22T17:49:50;9.30;;;2.70;;
74519;SDS011;63002;48.134;-1.948;2023-06-22T17:52:18;6.78;;;2.40;;
74519;SDS011;63002;48.134;-1.948;2023-06-22T17:54:45;10.40;;;3.80;;
74519;SDS011;63002;48.134;-1.948;2023-06-22T17:57:45;11.93;;;4.13;;
74519;SDS011;63002;48.134;-1.948;2023-06-22T18:00:18;9.40;;;3.92;;
74519;SDS011;63002;48.134;-1.948;2023-06-22T18:02:47;13.93;;;3.95;;
74519;SDS011;63002;48.134;-1.948;2023-06-22T18:05:35;12.18;;;3.85;;
74519;SDS011;63002;48.134;-1.948;2023-06-22T18:08:31;15.25;;;5.25;;
74519;SDS011;63002;48.134;-1.948;2023-06-22T18:11:01;12.37;;;3.57;;
74519;SDS011;63002;48.134;-1.948;2023-06-22T18:13:35;12.88;;;3.45;;
74519;SDS011;63002;48.134;-1.948;2023-06-22T18:16:03;10.95;;;3.72;;
74519;SDS011;63002;48.134;-1.948;2023-06-22T18:18:33;10.00;;;3.20;;
74519;SDS011;63002;48.134;-1.948;2023-06-22T18:21:05;8.88;;;2.97;;
74519;SDS011;63002;48.134;-1.948;2023-06-22T18:23:35;8.07;;;2.70;;
74519;SDS011;63002;48.134;-1.948;2023-06-22T18:26:04;7.25;;;2.17;;
74519;SDS011;63002;48.134;-1.948;2023-06-22T18:28:34;8.30;;;2.63;;
74519;SDS011;63002;48.134;-1.948;2023-06-22T18:31:02;7.68;;;2.20;;
74519;SDS011;63002;48.134;-1.948;2023-06-22T18:33:32;7.13;;;2.58;;
74519;SDS011;63002;48.134;-1.948;2023-06-22T18:36:00;8.43;;;2.47;;
74519;SDS011;63002;48.134;-1.948;2023-06-22T18:38:28;8.50;;;2.15;;
74519;SDS011;63002;48.134;-1.948;2023-06-22T18:40:57;6.03;;;2.10;;
74519;SDS011;63002;48.134;-1.948;2023-06-22T18:43:27;6.00;;;1.92;;
74519;SDS011;63002;48.134;-1.948;2023-06-22T18:45:55;6.03;;;1.98;;
74519;SDS011;63002;48.134;-1.948;2023-06-22T18:49:17;7.37;;;2.43;;
74519;SDS011;63002;48.134;-1.948;2023-06-22T18:51:49;7.03;;;2.05;;
74519;SDS011;63002;48.134;-1.948;2023-06-22T18:54:21;7.65;;;1.85;;
74519;SDS011;63002;48.134;-1.948;2023-06-22T18:56:55;4.95;;;1.77;;
74519;SDS011;63002;48.134;-1.948;2023-06-22T19:05:06;6.20;;;1.77;;
74519;SDS011;63002;48.134;-1.948;2023-06-22T19:10:23;5.38;;;1.95;;
74519;SDS011;63002;48.134;-1.948;2023-06-22T19:12:57;5.20;;;1.90;;
74519;SDS011;63002;48.134;-1.948;2023-06-22T19:15:45;5.03;;;1.90;;
74519;SDS011;63002;48.134;-1.948;2023-06-22T19:18:18;5.35;;;1.85;;
74519;SDS011;63002;48.134;-1.948;2023-06-22T19:20:48;5.78;;;1.88;;
74519;SDS011;63002;48.134;-1.948;2023-06-22T19:23:25;5.45;;;1.90;;
74519;SDS011;63002;48.134;-1.948;2023-06-22T19:26:12;5.45;;;2.05;;
74519;SDS011;63002;48.134;-1.948;2023-06-22T19:31:20;5.57;;;2.00;;
74519;SDS011;63002;48.134;-1.948;2023-06-22T19:34:08;5.45;;;1.85;;
74519;SDS011;63002;48.134;-1.948;2023-06-22T19:36:36;5.03;;;1.80;;
74519;SDS011;63002;48.134;-1.948;2023-06-22T19:39:03;7.32;;;2.03;;
74519;SDS011;63002;48.134;-1.948;2023-06-22T19:41:38;6.67;;;1.90;;
74519;SDS011;63002;48.134;-1.948;2023-06-22T19:44:11;5.65;;;1.83;;
74519;SDS011;63002;48.134;-1.948;2023-06-22T19:46:45;5.05;;;1.60;;
74519;SDS011;63002;48.134;-1.948;2023-06-22T19:49:15;7.45;;;2.10;;
74519;SDS011;63002;48.134;-1.948;2023-06-22T19:51:45;5.22;;;1.90;;
74519;SDS011;63002;48.134;-1.948;2023-06-22T19:54:13;6.83;;;2.17;;